Lavernia, Texas
Current Conditions -  °F | °C
As of 4:58 AM on Thursday 23 Oct 2014 (Local Time) from KRND Reporting Station
Few Clouds Few Clouds  
Wind Chill: 66°   Ceiling: Unl
Heat Index: 66°   Visibility: 10mi
Dew Point: 63°   Wind: 1mph
Humidity: 88%   Direction: 350°N
Pressure: 30.1"   Gusts: NA
Location:  29.356°N, 98.0927°W
Report Text: KRND 230958Z AUTO 35001KT 10SM FEW048 19/17 A3010 RMK AO2 DZE0956 SLP186 P0000
Loading
Personal Weather Stations






























Interactive Weather Map
Tropical Storm Tracking
New forecast layout! Learn more

10-Day Weather Forecast

Advertisements
Track Severe Weather on mobile